Agonistis — SVBC3 — position and weather

sailwx.info

Track history (hours):
 
Tides and Currents Weather Stations Pressure Air Temp Water Temp Dewpoint Dewpoint Depression Visibility Wind Speed Wind Dir Waves Ship Positions

Agonistis

Last reported at 2016-Jul-20 18:32 UTC. Time now 2016-Jul-24 18:29 UTC.
Position N 01°15' E 104°05'.

Length 196 m; draft 12.8 m.

Type: Cargo ship. MMSI: 241048000.

Date/timePositionNaut miles runAvg speedWind from/ knotsBaromVisibWave heightAir tempDewpointWater temp
2016-Jul-20 18:32N 01°15' E 104°05'8 8.5
2016-Jul-20 17:32N 01°16' E 103°57'1 1.1
2016-Jul-20 16:29N 01°17' E 103°56'0 0.2
2016-Jul-20 15:23N 01°17' E 103°56'0 0.1
2016-Jul-20 14:29N 01°17' E 103°56'0 0.0
2016-Jul-20 13:17N 01°16' E 103°56'0 0.0
2016-Jul-20 12:26N 01°16' E 103°56'0 0.0
2016-Jul-20 11:32N 01°16' E 103°56'0 0.1
2016-Jul-20 10:29N 01°17' E 103°56'0 0.1
2016-Jul-20 09:29N 01°17' E 103°56'0 0.1
2016-Jul-20 08:32N 01°17' E 103°56'0 0.1
2016-Jul-20 07:29N 01°17' E 103°56'0 0.0
2016-Jul-20 06:29N 01°17' E 103°56'0 0.0
2016-Jul-20 05:29N 01°17' E 103°56'0 0.0
2016-Jul-20 04:29N 01°17' E 103°56'0 0.0
2016-Jul-20 03:32N 01°17' E 103°56'0 0.1
2016-Jul-20 02:33N 01°17' E 103°56'2 2.3
2016-Jul-20 01:34N 01°15' E 103°58'7 7.4
2016-Jul-20 00:33N 01°11' E 103°51'81 9.8
2016-Jul-19 16:14N 01°43' E 102°36'911.0
2016-Jul-19 15:24N 01°46' E 102°28'910.3
2016-Jul-19 14:33N 01°50' E 102°20'  
Track history (hours):
 
Tides and Currents Weather Stations Pressure Air Temp Water Temp Dewpoint Dewpoint Depression Visibility Wind Speed Wind Dir Waves Ship Positions

Agonistis

Last reported at 2016-Jul-20 18:32 UTC. Time now 2016-Jul-24 18:29 UTC.
Position N 01°15' E 104°05'.

Length 196 m; draft 12.8 m.

Type: Cargo ship. MMSI: 241048000.

Date/timePositionNaut miles runAvg speedWind from/ knotsBaromVisibWave heightAir tempDewpointWater temp
2016-Jul-20 18:32N 01°15' E 104°05'8 8.5
2016-Jul-20 17:32N 01°16' E 103°57'1 1.1
2016-Jul-20 16:29N 01°17' E 103°56'0 0.2
2016-Jul-20 15:23N 01°17' E 103°56'0 0.1
2016-Jul-20 14:29N 01°17' E 103°56'0 0.0
2016-Jul-20 13:17N 01°16' E 103°56'0 0.0
2016-Jul-20 12:26N 01°16' E 103°56'0 0.0
2016-Jul-20 11:32N 01°16' E 103°56'0 0.1
2016-Jul-20 10:29N 01°17' E 103°56'0 0.1
2016-Jul-20 09:29N 01°17' E 103°56'0 0.1
2016-Jul-20 08:32N 01°17' E 103°56'0 0.1
2016-Jul-20 07:29N 01°17' E 103°56'0 0.0
2016-Jul-20 06:29N 01°17' E 103°56'0 0.0
2016-Jul-20 05:29N 01°17' E 103°56'0 0.0
2016-Jul-20 04:29N 01°17' E 103°56'0 0.0
2016-Jul-20 03:32N 01°17' E 103°56'0 0.1
2016-Jul-20 02:33N 01°17' E 103°56'2 2.3
2016-Jul-20 01:34N 01°15' E 103°58'7 7.4
2016-Jul-20 00:33N 01°11' E 103°51'81 9.8
2016-Jul-19 16:14N 01°43' E 102°36'911.0
2016-Jul-19 15:24N 01°46' E 102°28'910.3
2016-Jul-19 14:33N 01°50' E 102°20'  

Dump ship's entire track history